sensor_id;sensor_type;location;lat;lon;timestamp;P1;durP1;ratioP1;P2;durP2;ratioP2
20497;SDS011;10407;53.238;10.448;2022-07-10T00:01:03;3.87;;;1.70;;
20497;SDS011;10407;53.238;10.448;2022-07-10T00:03:30;7.13;;;1.50;;
20497;SDS011;10407;53.238;10.448;2022-07-10T00:05:58;8.27;;;1.77;;
20497;SDS011;10407;53.238;10.448;2022-07-10T00:08:25;3.83;;;1.53;;
20497;SDS011;10407;53.238;10.448;2022-07-10T00:10:53;2.70;;;1.47;;
20497;SDS011;10407;53.238;10.448;2022-07-10T00:13:20;8.63;;;2.07;;
20497;SDS011;10407;53.238;10.448;2022-07-10T00:15:48;6.20;;;1.67;;
20497;SDS011;10407;53.238;10.448;2022-07-10T00:18:16;3.57;;;1.50;;
20497;SDS011;10407;53.238;10.448;2022-07-10T00:20:44;4.37;;;1.60;;
20497;SDS011;10407;53.238;10.448;2022-07-10T00:23:12;3.03;;;1.43;;
20497;SDS011;10407;53.238;10.448;2022-07-10T00:25:39;6.93;;;1.50;;
20497;SDS011;10407;53.238;10.448;2022-07-10T00:28:07;7.17;;;2.00;;
20497;SDS011;10407;53.238;10.448;2022-07-10T00:30:34;3.13;;;1.47;;
20497;SDS011;10407;53.238;10.448;2022-07-10T00:33:02;3.93;;;2.03;;
20497;SDS011;10407;53.238;10.448;2022-07-10T00:35:30;4.37;;;1.37;;
20497;SDS011;10407;53.238;10.448;2022-07-10T00:37:58;10.20;;;2.03;;
20497;SDS011;10407;53.238;10.448;2022-07-10T00:40:25;3.30;;;1.93;;
20497;SDS011;10407;53.238;10.448;2022-07-10T00:42:53;3.50;;;1.30;;
20497;SDS011;10407;53.238;10.448;2022-07-10T00:45:20;3.67;;;2.00;;
20497;SDS011;10407;53.238;10.448;2022-07-10T00:47:48;5.00;;;2.00;;
20497;SDS011;10407;53.238;10.448;2022-07-10T00:50:15;4.00;;;1.60;;
20497;SDS011;10407;53.238;10.448;2022-07-10T00:52:43;6.00;;;1.70;;
20497;SDS011;10407;53.238;10.448;2022-07-10T00:55:12;3.07;;;1.80;;
20497;SDS011;10407;53.238;10.448;2022-07-10T00:57:41;3.50;;;1.50;;
20497;SDS011;10407;53.238;10.448;2022-07-10T01:00:08;4.47;;;2.00;;
20497;SDS011;10407;53.238;10.448;2022-07-10T01:02:41;5.50;;;1.83;;
20497;SDS011;10407;53.238;10.448;2022-07-10T01:05:09;6.93;;;2.70;;
20497;SDS011;10407;53.238;10.448;2022-07-10T01:07:37;4.67;;;1.60;;
20497;SDS011;10407;53.238;10.448;2022-07-10T01:10:05;2.83;;;1.07;;
20497;SDS011;10407;53.238;10.448;2022-07-10T01:12:33;4.23;;;1.50;;
20497;SDS011;10407;53.238;10.448;2022-07-10T01:15:02;6.53;;;1.80;;
20497;SDS011;10407;53.238;10.448;2022-07-10T01:17:30;5.43;;;1.60;;
20497;SDS011;10407;53.238;10.448;2022-07-10T01:19:58;4.63;;;1.60;;
20497;SDS011;10407;53.238;10.448;2022-07-10T01:22:27;4.53;;;2.00;;
20497;SDS011;10407;53.238;10.448;2022-07-10T01:24:54;3.37;;;1.30;;
20497;SDS011;10407;53.238;10.448;2022-07-10T01:27:22;5.63;;;1.73;;
20497;SDS011;10407;53.238;10.448;2022-07-10T01:29:49;2.73;;;1.57;;
20497;SDS011;10407;53.238;10.448;2022-07-10T01:32:18;2.60;;;1.20;;
20497;SDS011;10407;53.238;10.448;2022-07-10T01:34:46;6.40;;;2.00;;
20497;SDS011;10407;53.238;10.448;2022-07-10T01:37:13;5.27;;;1.30;;
20497;SDS011;10407;53.238;10.448;2022-07-10T01:39:41;3.60;;;1.50;;
20497;SDS011;10407;53.238;10.448;2022-07-10T01:44:55;2.17;;;1.20;;
20497;SDS011;10407;53.238;10.448;2022-07-10T01:47:23;5.17;;;1.40;;
20497;SDS011;10407;53.238;10.448;2022-07-10T01:49:52;2.33;;;1.47;;
20497;SDS011;10407;53.238;10.448;2022-07-10T01:52:20;28.17;;;11.87;;
20497;SDS011;10407;53.238;10.448;2022-07-10T01:54:48;33.10;;;15.17;;
20497;SDS011;10407;53.238;10.448;2022-07-10T01:57:15;52.17;;;24.30;;
20497;SDS011;10407;53.238;10.448;2022-07-10T01:59:44;29.03;;;13.90;;
20497;SDS011;10407;53.238;10.448;2022-07-10T02:02:11;17.37;;;7.33;;
20497;SDS011;10407;53.238;10.448;2022-07-10T02:04:39;28.83;;;14.83;;
20497;SDS011;10407;53.238;10.448;2022-07-10T02:07:13;43.60;;;22.47;;
20497;SDS011;10407;53.238;10.448;2022-07-10T02:09:43;34.20;;;15.43;;
20497;SDS011;10407;53.238;10.448;2022-07-10T02:12:12;42.97;;;19.77;;
20497;SDS011;10407;53.238;10.448;2022-07-10T02:14:41;31.90;;;14.70;;
20497;SDS011;10407;53.238;10.448;2022-07-10T02:17:09;7.63;;;4.10;;
20497;SDS011;10407;53.238;10.448;2022-07-10T02:19:37;5.40;;;1.93;;
20497;SDS011;10407;53.238;10.448;2022-07-10T02:22:04;4.60;;;1.80;;
20497;SDS011;10407;53.238;10.448;2022-07-10T02:24:32;7.47;;;2.00;;
20497;SDS011;10407;53.238;10.448;2022-07-10T02:27:00;7.80;;;2.77;;
20497;SDS011;10407;53.238;10.448;2022-07-10T02:29:27;80.10;;;35.40;;
20497;SDS011;10407;53.238;10.448;2022-07-10T02:31:55;21.20;;;11.53;;
20497;SDS011;10407;53.238;10.448;2022-07-10T02:34:22;14.90;;;7.20;;
20497;SDS011;10407;53.238;10.448;2022-07-10T02:36:50;51.90;;;23.67;;
20497;SDS011;10407;53.238;10.448;2022-07-10T02:39:17;52.00;;;24.13;;
20497;SDS011;10407;53.238;10.448;2022-07-10T02:41:45;123.17;;;53.37;;
20497;SDS011;10407;53.238;10.448;2022-07-10T02:44:12;16.20;;;7.20;;
20497;SDS011;10407;53.238;10.448;2022-07-10T02:46:40;7.00;;;2.47;;
20497;SDS011;10407;53.238;10.448;2022-07-10T02:49:08;6.00;;;2.10;;
20497;SDS011;10407;53.238;10.448;2022-07-10T02:51:35;4.33;;;1.53;;
20497;SDS011;10407;53.238;10.448;2022-07-10T02:54:03;7.53;;;2.37;;
20497;SDS011;10407;53.238;10.448;2022-07-10T02:56:31;2.97;;;1.37;;
20497;SDS011;10407;53.238;10.448;2022-07-10T02:58:58;4.20;;;1.60;;
20497;SDS011;10407;53.238;10.448;2022-07-10T03:01:26;3.70;;;1.57;;
20497;SDS011;10407;53.238;10.448;2022-07-10T03:03:53;3.97;;;1.67;;
20497;SDS011;10407;53.238;10.448;2022-07-10T03:06:21;7.70;;;1.40;;
20497;SDS011;10407;53.238;10.448;2022-07-10T03:08:49;4.40;;;1.63;;
20497;SDS011;10407;53.238;10.448;2022-07-10T03:11:16;4.90;;;1.40;;
20497;SDS011;10407;53.238;10.448;2022-07-10T03:13:44;6.30;;;1.43;;
20497;SDS011;10407;53.238;10.448;2022-07-10T03:16:12;6.10;;;2.43;;
20497;SDS011;10407;53.238;10.448;2022-07-10T03:18:39;50.83;;;22.07;;
20497;SDS011;10407;53.238;10.448;2022-07-10T03:21:07;100.63;;;39.10;;
20497;SDS011;10407;53.238;10.448;2022-07-10T03:23:34;136.00;;;54.27;;
20497;SDS011;10407;53.238;10.448;2022-07-10T03:26:02;59.80;;;28.47;;
20497;SDS011;10407;53.238;10.448;2022-07-10T03:28:29;11.60;;;4.40;;
20497;SDS011;10407;53.238;10.448;2022-07-10T03:30:57;4.70;;;2.00;;
20497;SDS011;10407;53.238;10.448;2022-07-10T03:33:24;8.10;;;2.33;;
20497;SDS011;10407;53.238;10.448;2022-07-10T03:35:52;9.67;;;2.60;;
20497;SDS011;10407;53.238;10.448;2022-07-10T03:38:20;6.73;;;1.67;;
20497;SDS011;10407;53.238;10.448;2022-07-10T03:40:48;5.63;;;2.50;;
20497;SDS011;10407;53.238;10.448;2022-07-10T03:43:15;8.10;;;2.00;;
20497;SDS011;10407;53.238;10.448;2022-07-10T03:45:43;5.50;;;1.70;;
20497;SDS011;10407;53.238;10.448;2022-07-10T03:48:11;5.67;;;1.47;;
20497;SDS011;10407;53.238;10.448;2022-07-10T03:50:38;5.27;;;2.20;;
20497;SDS011;10407;53.238;10.448;2022-07-10T03:53:06;4.90;;;2.13;;
20497;SDS011;10407;53.238;10.448;2022-07-10T03:55:34;7.20;;;2.20;;
20497;SDS011;10407;53.238;10.448;2022-07-10T03:58:01;10.20;;;2.37;;
20497;SDS011;10407;53.238;10.448;2022-07-10T04:00:30;6.43;;;1.87;;
20497;SDS011;10407;53.238;10.448;2022-07-10T04:02:58;11.13;;;2.27;;
20497;SDS011;10407;53.238;10.448;2022-07-10T04:05:27;8.10;;;1.80;;
20497;SDS011;10407;53.238;10.448;2022-07-10T04:07:56;7.60;;;1.60;;
20497;SDS011;10407;53.238;10.448;2022-07-10T04:10:25;8.77;;;1.77;;
20497;SDS011;10407;53.238;10.448;2022-07-10T04:12:54;6.03;;;1.83;;
20497;SDS011;10407;53.238;10.448;2022-07-10T04:15:22;16.33;;;2.03;;
20497;SDS011;10407;53.238;10.448;2022-07-10T04:17:50;3.23;;;2.00;;
20497;SDS011;10407;53.238;10.448;2022-07-10T04:20:18;7.10;;;1.60;;
20497;SDS011;10407;53.238;10.448;2022-07-10T04:22:46;4.07;;;1.90;;
20497;SDS011;10407;53.238;10.448;2022-07-10T04:25:14;4.77;;;2.30;;
20497;SDS011;10407;53.238;10.448;2022-07-10T04:27:42;4.37;;;1.90;;
20497;SDS011;10407;53.238;10.448;2022-07-10T04:30:10;6.47;;;1.90;;
20497;SDS011;10407;53.238;10.448;2022-07-10T04:32:37;3.80;;;1.73;;
20497;SDS011;10407;53.238;10.448;2022-07-10T04:35:05;7.00;;;2.17;;
20497;SDS011;10407;53.238;10.448;2022-07-10T04:37:33;13.67;;;2.50;;
20497;SDS011;10407;53.238;10.448;2022-07-10T04:40:00;5.40;;;1.80;;
20497;SDS011;10407;53.238;10.448;2022-07-10T04:42:28;6.90;;;2.00;;
20497;SDS011;10407;53.238;10.448;2022-07-10T04:44:56;4.73;;;1.83;;
20497;SDS011;10407;53.238;10.448;2022-07-10T04:47:23;5.43;;;2.30;;
20497;SDS011;10407;53.238;10.448;2022-07-10T04:49:51;5.50;;;1.60;;
20497;SDS011;10407;53.238;10.448;2022-07-10T04:52:18;9.07;;;2.07;;
20497;SDS011;10407;53.238;10.448;2022-07-10T04:54:46;7.40;;;1.80;;
20497;SDS011;10407;53.238;10.448;2022-07-10T04:57:13;9.73;;;1.83;;
20497;SDS011;10407;53.238;10.448;2022-07-10T04:59:41;8.40;;;2.00;;
20497;SDS011;10407;53.238;10.448;2022-07-10T05:02:08;6.70;;;2.03;;
20497;SDS011;10407;53.238;10.448;2022-07-10T05:04:36;9.20;;;2.33;;
20497;SDS011;10407;53.238;10.448;2022-07-10T05:07:03;6.80;;;1.87;;
20497;SDS011;10407;53.238;10.448;2022-07-10T05:09:31;7.90;;;1.80;;
20497;SDS011;10407;53.238;10.448;2022-07-10T05:11:58;8.30;;;2.37;;
20497;SDS011;10407;53.238;10.448;2022-07-10T05:14:26;11.17;;;2.20;;
20497;SDS011;10407;53.238;10.448;2022-07-10T05:16:54;6.97;;;2.37;;
20497;SDS011;10407;53.238;10.448;2022-07-10T05:19:21;6.20;;;1.70;;
20497;SDS011;10407;53.238;10.448;2022-07-10T05:21:49;5.23;;;2.73;;
20497;SDS011;10407;53.238;10.448;2022-07-10T05:24:16;9.80;;;2.73;;
20497;SDS011;10407;53.238;10.448;2022-07-10T05:26:44;12.70;;;2.30;;
20497;SDS011;10407;53.238;10.448;2022-07-10T05:29:12;6.13;;;2.00;;
20497;SDS011;10407;53.238;10.448;2022-07-10T05:31:39;9.40;;;2.87;;
20497;SDS011;10407;53.238;10.448;2022-07-10T05:34:07;7.90;;;2.00;;
20497;SDS011;10407;53.238;10.448;2022-07-10T05:36:34;11.43;;;2.77;;
20497;SDS011;10407;53.238;10.448;2022-07-10T05:39:02;8.67;;;2.30;;
20497;SDS011;10407;53.238;10.448;2022-07-10T05:41:29;10.63;;;2.47;;
20497;SDS011;10407;53.238;10.448;2022-07-10T05:43:59;11.30;;;2.17;;
20497;SDS011;10407;53.238;10.448;2022-07-10T05:46:26;13.07;;;2.23;;
20497;SDS011;10407;53.238;10.448;2022-07-10T05:48:54;4.37;;;2.03;;
20497;SDS011;10407;53.238;10.448;2022-07-10T05:51:22;11.70;;;3.03;;
20497;SDS011;10407;53.238;10.448;2022-07-10T05:53:49;7.77;;;2.53;;
20497;SDS011;10407;53.238;10.448;2022-07-10T05:56:17;8.77;;;2.50;;
20497;SDS011;10407;53.238;10.448;2022-07-10T05:58:44;11.57;;;2.10;;
20497;SDS011;10407;53.238;10.448;2022-07-10T06:01:12;7.97;;;2.60;;
20497;SDS011;10407;53.238;10.448;2022-07-10T06:03:39;9.90;;;3.20;;
20497;SDS011;10407;53.238;10.448;2022-07-10T06:06:07;8.20;;;2.83;;
20497;SDS011;10407;53.238;10.448;2022-07-10T06:08:35;11.80;;;3.00;;
20497;SDS011;10407;53.238;10.448;2022-07-10T06:11:02;8.40;;;2.80;;
20497;SDS011;10407;53.238;10.448;2022-07-10T06:13:30;14.43;;;3.27;;
20497;SDS011;10407;53.238;10.448;2022-07-10T06:15:58;7.00;;;2.13;;
20497;SDS011;10407;53.238;10.448;2022-07-10T06:18:26;11.10;;;2.90;;
20497;SDS011;10407;53.238;10.448;2022-07-10T06:20:54;7.83;;;2.73;;
20497;SDS011;10407;53.238;10.448;2022-07-10T06:23:21;7.20;;;2.83;;
20497;SDS011;10407;53.238;10.448;2022-07-10T06:25:49;8.37;;;2.53;;
20497;SDS011;10407;53.238;10.448;2022-07-10T06:28:17;7.63;;;2.03;;
20497;SDS011;10407;53.238;10.448;2022-07-10T06:30:45;8.97;;;2.60;;
20497;SDS011;10407;53.238;10.448;2022-07-10T06:33:13;12.10;;;2.27;;
20497;SDS011;10407;53.238;10.448;2022-07-10T06:35:40;7.97;;;2.30;;
20497;SDS011;10407;53.238;10.448;2022-07-10T06:38:08;7.40;;;2.10;;
20497;SDS011;10407;53.238;10.448;2022-07-10T06:40:37;10.10;;;2.70;;
20497;SDS011;10407;53.238;10.448;2022-07-10T06:43:05;7.67;;;2.53;;
20497;SDS011;10407;53.238;10.448;2022-07-10T06:45:32;12.37;;;2.63;;
20497;SDS011;10407;53.238;10.448;2022-07-10T06:48:00;11.70;;;2.50;;
20497;SDS011;10407;53.238;10.448;2022-07-10T06:50:28;8.27;;;2.73;;
20497;SDS011;10407;53.238;10.448;2022-07-10T06:52:59;11.07;;;2.57;;
20497;SDS011;10407;53.238;10.448;2022-07-10T06:55:27;9.60;;;2.40;;
20497;SDS011;10407;53.238;10.448;2022-07-10T06:57:55;10.00;;;2.33;;
20497;SDS011;10407;53.238;10.448;2022-07-10T07:00:23;7.70;;;2.77;;
20497;SDS011;10407;53.238;10.448;2022-07-10T07:02:51;10.93;;;3.00;;
20497;SDS011;10407;53.238;10.448;2022-07-10T07:05:19;7.80;;;2.00;;
20497;SDS011;10407;53.238;10.448;2022-07-10T07:07:47;7.33;;;2.80;;
20497;SDS011;10407;53.238;10.448;2022-07-10T07:10:15;13.57;;;2.63;;
20497;SDS011;10407;53.238;10.448;2022-07-10T07:12:42;7.87;;;2.53;;
20497;SDS011;10407;53.238;10.448;2022-07-10T07:15:10;9.33;;;2.93;;
20497;SDS011;10407;53.238;10.448;2022-07-10T07:17:39;11.13;;;2.50;;
20497;SDS011;10407;53.238;10.448;2022-07-10T07:20:25;12.47;;;2.60;;
20497;SDS011;10407;53.238;10.448;2022-07-10T07:23:11;7.77;;;2.43;;
20497;SDS011;10407;53.238;10.448;2022-07-10T07:25:39;9.43;;;2.57;;
20497;SDS011;10407;53.238;10.448;2022-07-10T07:28:12;10.60;;;3.20;;
20497;SDS011;10407;53.238;10.448;2022-07-10T07:30:48;7.83;;;2.37;;
20497;SDS011;10407;53.238;10.448;2022-07-10T07:33:16;11.27;;;3.27;;
20497;SDS011;10407;53.238;10.448;2022-07-10T07:35:44;7.97;;;2.43;;
20497;SDS011;10407;53.238;10.448;2022-07-10T07:38:12;7.33;;;2.60;;
20497;SDS011;10407;53.238;10.448;2022-07-10T07:40:39;8.30;;;2.73;;
20497;SDS011;10407;53.238;10.448;2022-07-10T07:43:07;12.27;;;2.73;;
20497;SDS011;10407;53.238;10.448;2022-07-10T07:45:35;10.10;;;2.10;;
20497;SDS011;10407;53.238;10.448;2022-07-10T07:48:02;9.73;;;2.07;;
20497;SDS011;10407;53.238;10.448;2022-07-10T07:50:31;11.13;;;2.60;;
20497;SDS011;10407;53.238;10.448;2022-07-10T07:53:01;10.90;;;2.40;;
20497;SDS011;10407;53.238;10.448;2022-07-10T07:55:31;7.93;;;2.70;;
20497;SDS011;10407;53.238;10.448;2022-07-10T07:58:00;13.97;;;3.03;;
20497;SDS011;10407;53.238;10.448;2022-07-10T08:00:29;10.30;;;2.83;;
20497;SDS011;10407;53.238;10.448;2022-07-10T08:02:57;12.43;;;3.10;;
20497;SDS011;10407;53.238;10.448;2022-07-10T08:05:26;12.97;;;3.57;;
20497;SDS011;10407;53.238;10.448;2022-07-10T08:07:54;13.00;;;2.80;;
20497;SDS011;10407;53.238;10.448;2022-07-10T08:10:25;6.97;;;2.03;;
20497;SDS011;10407;53.238;10.448;2022-07-10T08:12:53;9.53;;;2.23;;
20497;SDS011;10407;53.238;10.448;2022-07-10T08:15:21;9.40;;;2.30;;
20497;SDS011;10407;53.238;10.448;2022-07-10T08:17:50;8.63;;;2.47;;
20497;SDS011;10407;53.238;10.448;2022-07-10T08:20:20;10.57;;;3.97;;
20497;SDS011;10407;53.238;10.448;2022-07-10T08:22:48;39.23;;;18.97;;
20497;SDS011;10407;53.238;10.448;2022-07-10T08:25:18;27.23;;;13.23;;
20497;SDS011;10407;53.238;10.448;2022-07-10T08:27:46;18.63;;;7.13;;
20497;SDS011;10407;53.238;10.448;2022-07-10T08:30:14;21.03;;;7.57;;
20497;SDS011;10407;53.238;10.448;2022-07-10T08:32:42;21.97;;;8.80;;
20497;SDS011;10407;53.238;10.448;2022-07-10T08:35:09;17.97;;;8.70;;
20497;SDS011;10407;53.238;10.448;2022-07-10T08:37:39;14.93;;;3.13;;
20497;SDS011;10407;53.238;10.448;2022-07-10T08:40:08;11.60;;;2.77;;
20497;SDS011;10407;53.238;10.448;2022-07-10T08:42:37;7.13;;;2.70;;
20497;SDS011;10407;53.238;10.448;2022-07-10T08:45:06;9.53;;;2.87;;
20497;SDS011;10407;53.238;10.448;2022-07-10T08:47:34;18.03;;;7.70;;
20497;SDS011;10407;53.238;10.448;2022-07-10T08:50:04;13.77;;;5.07;;
20497;SDS011;10407;53.238;10.448;2022-07-10T08:52:37;8.20;;;4.37;;
20497;SDS011;10407;53.238;10.448;2022-07-10T08:55:18;9.40;;;4.00;;
20497;SDS011;10407;53.238;10.448;2022-07-10T08:57:47;7.00;;;2.43;;
20497;SDS011;10407;53.238;10.448;2022-07-10T09:00:37;10.67;;;3.80;;
20497;SDS011;10407;53.238;10.448;2022-07-10T09:03:04;18.87;;;8.70;;
20497;SDS011;10407;53.238;10.448;2022-07-10T09:05:32;7.37;;;2.80;;
20497;SDS011;10407;53.238;10.448;2022-07-10T09:08:01;8.23;;;2.60;;
20497;SDS011;10407;53.238;10.448;2022-07-10T09:10:28;7.20;;;2.23;;
20497;SDS011;10407;53.238;10.448;2022-07-10T09:13:01;6.70;;;2.40;;
20497;SDS011;10407;53.238;10.448;2022-07-10T09:15:30;9.40;;;2.30;;
20497;SDS011;10407;53.238;10.448;2022-07-10T09:17:59;5.20;;;2.13;;
20497;SDS011;10407;53.238;10.448;2022-07-10T09:20:35;11.07;;;2.57;;
20497;SDS011;10407;53.238;10.448;2022-07-10T09:25:46;10.20;;;2.40;;
20497;SDS011;10407;53.238;10.448;2022-07-10T09:28:20;11.07;;;2.37;;
20497;SDS011;10407;53.238;10.448;2022-07-10T09:30:45;16.87;;;2.87;;
20497;SDS011;10407;53.238;10.448;2022-07-10T09:43:54;8.43;;;2.70;;
20497;SDS011;10407;53.238;10.448;2022-07-10T09:49:01;11.00;;;2.73;;
20497;SDS011;10407;53.238;10.448;2022-07-10T09:51:37;6.80;;;2.07;;
20497;SDS011;10407;53.238;10.448;2022-07-10T09:54:07;10.60;;;2.70;;
20497;SDS011;10407;53.238;10.448;2022-07-10T09:56:40;7.40;;;2.70;;
20497;SDS011;10407;53.238;10.448;2022-07-10T09:59:13;8.47;;;2.47;;
20497;SDS011;10407;53.238;10.448;2022-07-10T10:01:51;6.40;;;2.37;;
20497;SDS011;10407;53.238;10.448;2022-07-10T10:04:21;8.33;;;2.30;;
20497;SDS011;10407;53.238;10.448;2022-07-10T10:06:51;7.50;;;2.40;;
20497;SDS011;10407;53.238;10.448;2022-07-10T10:12:05;5.30;;;2.10;;
20497;SDS011;10407;53.238;10.448;2022-07-10T10:14:33;7.60;;;2.17;;
20497;SDS011;10407;53.238;10.448;2022-07-10T10:17:02;6.30;;;2.30;;
20497;SDS011;10407;53.238;10.448;2022-07-10T10:19:31;5.40;;;2.10;;
20497;SDS011;10407;53.238;10.448;2022-07-10T10:22:19;5.83;;;2.10;;
20497;SDS011;10407;53.238;10.448;2022-07-10T10:24:49;6.10;;;1.90;;
20497;SDS011;10407;53.238;10.448;2022-07-10T10:27:18;4.40;;;1.80;;
20497;SDS011;10407;53.238;10.448;2022-07-10T10:29:47;6.03;;;2.27;;
20497;SDS011;10407;53.238;10.448;2022-07-10T10:32:17;4.47;;;1.60;;
20497;SDS011;10407;53.238;10.448;2022-07-10T10:34:45;3.80;;;1.60;;
20497;SDS011;10407;53.238;10.448;2022-07-10T10:40:00;20.13;;;9.70;;
20497;SDS011;10407;53.238;10.448;2022-07-10T10:42:39;14.77;;;6.40;;
20497;SDS011;10407;53.238;10.448;2022-07-10T10:45:25;15.73;;;5.90;;
20497;SDS011;10407;53.238;10.448;2022-07-10T10:48:07;10.80;;;5.43;;
20497;SDS011;10407;53.238;10.448;2022-07-10T10:53:23;8.93;;;3.57;;
20497;SDS011;10407;53.238;10.448;2022-07-10T10:58:37;8.03;;;2.33;;
20497;SDS011;10407;53.238;10.448;2022-07-10T11:01:23;5.37;;;1.70;;
20497;SDS011;10407;53.238;10.448;2022-07-10T11:06:42;5.63;;;1.90;;
20497;SDS011;10407;53.238;10.448;2022-07-10T11:12:08;7.10;;;2.27;;
20497;SDS011;10407;53.238;10.448;2022-07-10T11:14:47;6.77;;;2.20;;
20497;SDS011;10407;53.238;10.448;2022-07-10T11:17:16;5.00;;;1.83;;
20497;SDS011;10407;53.238;10.448;2022-07-10T11:19:44;7.73;;;1.80;;
20497;SDS011;10407;53.238;10.448;2022-07-10T11:22:37;4.33;;;1.77;;
20497;SDS011;10407;53.238;10.448;2022-07-10T11:25:23;9.90;;;1.93;;
20497;SDS011;10407;53.238;10.448;2022-07-10T11:28:05;7.73;;;2.20;;
20497;SDS011;10407;53.238;10.448;2022-07-10T11:30:56;8.43;;;1.80;;
20497;SDS011;10407;53.238;10.448;2022-07-10T11:33:21;4.17;;;1.70;;
20497;SDS011;10407;53.238;10.448;2022-07-10T11:35:52;5.93;;;2.17;;
20497;SDS011;10407;53.238;10.448;2022-07-10T11:38:21;5.80;;;1.90;;
20497;SDS011;10407;53.238;10.448;2022-07-10T11:40:50;8.73;;;2.00;;
20497;SDS011;10407;53.238;10.448;2022-07-10T11:43:21;10.20;;;1.90;;
20497;SDS011;10407;53.238;10.448;2022-07-10T11:45:51;11.77;;;2.07;;
20497;SDS011;10407;53.238;10.448;2022-07-10T11:48:23;8.50;;;2.10;;
20497;SDS011;10407;53.238;10.448;2022-07-10T11:50:50;7.00;;;2.23;;
20497;SDS011;10407;53.238;10.448;2022-07-10T11:53:24;4.77;;;2.00;;
20497;SDS011;10407;53.238;10.448;2022-07-10T11:55:54;18.37;;;8.70;;
20497;SDS011;10407;53.238;10.448;2022-07-10T11:58:21;8.40;;;3.40;;
20497;SDS011;10407;53.238;10.448;2022-07-10T12:01:02;18.93;;;8.60;;
20497;SDS011;10407;53.238;10.448;2022-07-10T12:03:32;24.90;;;7.20;;
20497;SDS011;10407;53.238;10.448;2022-07-10T12:06:06;49.90;;;23.80;;
20497;SDS011;10407;53.238;10.448;2022-07-10T12:08:43;12.97;;;4.77;;
20497;SDS011;10407;53.238;10.448;2022-07-10T12:11:15;9.17;;;2.70;;
20497;SDS011;10407;53.238;10.448;2022-07-10T12:13:44;6.43;;;2.10;;
20497;SDS011;10407;53.238;10.448;2022-07-10T12:16:13;9.33;;;2.17;;
20497;SDS011;10407;53.238;10.448;2022-07-10T12:18:41;6.80;;;2.27;;
20497;SDS011;10407;53.238;10.448;2022-07-10T12:21:10;6.00;;;2.20;;
20497;SDS011;10407;53.238;10.448;2022-07-10T12:23:38;7.97;;;2.17;;
20497;SDS011;10407;53.238;10.448;2022-07-10T12:26:10;11.90;;;2.53;;
20497;SDS011;10407;53.238;10.448;2022-07-10T12:28:49;6.53;;;2.20;;
20497;SDS011;10407;53.238;10.448;2022-07-10T12:31:21;7.50;;;2.27;;
20497;SDS011;10407;53.238;10.448;2022-07-10T12:33:51;8.43;;;2.50;;
20497;SDS011;10407;53.238;10.448;2022-07-10T12:36:20;6.00;;;2.00;;
20497;SDS011;10407;53.238;10.448;2022-07-10T12:38:55;6.17;;;1.80;;
20497;SDS011;10407;53.238;10.448;2022-07-10T12:41:24;6.70;;;1.60;;
20497;SDS011;10407;53.238;10.448;2022-07-10T12:43:52;5.73;;;1.73;;
20497;SDS011;10407;53.238;10.448;2022-07-10T12:46:23;4.20;;;1.53;;
20497;SDS011;10407;53.238;10.448;2022-07-10T12:49:03;5.70;;;2.07;;
20497;SDS011;10407;53.238;10.448;2022-07-10T12:51:47;10.73;;;1.93;;
20497;SDS011;10407;53.238;10.448;2022-07-10T12:57:03;6.47;;;1.70;;
20497;SDS011;10407;53.238;10.448;2022-07-10T12:59:35;7.17;;;2.00;;
20497;SDS011;10407;53.238;10.448;2022-07-10T13:02:13;5.43;;;2.17;;
20497;SDS011;10407;53.238;10.448;2022-07-10T13:04:58;5.40;;;2.00;;
20497;SDS011;10407;53.238;10.448;2022-07-10T13:07:32;7.73;;;2.00;;
20497;SDS011;10407;53.238;10.448;2022-07-10T13:10:02;9.50;;;2.00;;
20497;SDS011;10407;53.238;10.448;2022-07-10T13:12:36;10.87;;;1.93;;
20497;SDS011;10407;53.238;10.448;2022-07-10T13:15:01;7.10;;;1.90;;
20497;SDS011;10407;53.238;10.448;2022-07-10T13:17:29;4.53;;;1.93;;
20497;SDS011;10407;53.238;10.448;2022-07-10T13:19:57;6.50;;;2.07;;
20497;SDS011;10407;53.238;10.448;2022-07-10T13:22:25;4.60;;;2.23;;
20497;SDS011;10407;53.238;10.448;2022-07-10T13:24:52;3.57;;;1.80;;
20497;SDS011;10407;53.238;10.448;2022-07-10T13:27:20;8.03;;;2.20;;
20497;SDS011;10407;53.238;10.448;2022-07-10T13:29:49;6.60;;;1.87;;
20497;SDS011;10407;53.238;10.448;2022-07-10T13:32:16;8.63;;;2.17;;
20497;SDS011;10407;53.238;10.448;2022-07-10T13:34:44;8.03;;;2.60;;
20497;SDS011;10407;53.238;10.448;2022-07-10T13:37:11;6.97;;;1.90;;
20497;SDS011;10407;53.238;10.448;2022-07-10T13:39:40;25.43;;;12.73;;
20497;SDS011;10407;53.238;10.448;2022-07-10T13:42:08;87.87;;;43.50;;
20497;SDS011;10407;53.238;10.448;2022-07-10T13:44:36;56.27;;;25.60;;
20497;SDS011;10407;53.238;10.448;2022-07-10T13:47:04;17.10;;;8.20;;
20497;SDS011;10407;53.238;10.448;2022-07-10T13:49:32;17.10;;;8.27;;
20497;SDS011;10407;53.238;10.448;2022-07-10T13:52:01;27.70;;;14.87;;
20497;SDS011;10407;53.238;10.448;2022-07-10T13:54:29;7.40;;;2.30;;
20497;SDS011;10407;53.238;10.448;2022-07-10T13:56:56;8.27;;;2.10;;
20497;SDS011;10407;53.238;10.448;2022-07-10T13:59:24;7.50;;;2.20;;
20497;SDS011;10407;53.238;10.448;2022-07-10T14:01:52;5.97;;;1.93;;
20497;SDS011;10407;53.238;10.448;2022-07-10T14:04:19;5.53;;;1.70;;
20497;SDS011;10407;53.238;10.448;2022-07-10T14:06:47;5.77;;;1.90;;
20497;SDS011;10407;53.238;10.448;2022-07-10T14:09:14;5.57;;;2.20;;
20497;SDS011;10407;53.238;10.448;2022-07-10T14:11:42;6.70;;;1.93;;
20497;SDS011;10407;53.238;10.448;2022-07-10T14:14:10;5.70;;;2.10;;
20497;SDS011;10407;53.238;10.448;2022-07-10T14:16:38;16.87;;;7.77;;
20497;SDS011;10407;53.238;10.448;2022-07-10T14:19:05;18.87;;;7.13;;
20497;SDS011;10407;53.238;10.448;2022-07-10T14:21:33;23.10;;;10.30;;
20497;SDS011;10407;53.238;10.448;2022-07-10T14:24:02;18.10;;;8.37;;
20497;SDS011;10407;53.238;10.448;2022-07-10T14:26:30;19.57;;;8.33;;
20497;SDS011;10407;53.238;10.448;2022-07-10T14:28:59;12.43;;;5.67;;
20497;SDS011;10407;53.238;10.448;2022-07-10T14:31:27;6.00;;;2.73;;
20497;SDS011;10407;53.238;10.448;2022-07-10T14:33:55;7.23;;;2.00;;
20497;SDS011;10407;53.238;10.448;2022-07-10T14:36:23;6.57;;;2.40;;
20497;SDS011;10407;53.238;10.448;2022-07-10T14:38:54;7.43;;;2.10;;
20497;SDS011;10407;53.238;10.448;2022-07-10T14:41:23;8.13;;;2.13;;
20497;SDS011;10407;53.238;10.448;2022-07-10T14:43:51;7.23;;;2.23;;
20497;SDS011;10407;53.238;10.448;2022-07-10T14:46:19;6.47;;;2.03;;
20497;SDS011;10407;53.238;10.448;2022-07-10T14:48:46;7.73;;;2.07;;
20497;SDS011;10407;53.238;10.448;2022-07-10T14:51:14;8.30;;;2.00;;
20497;SDS011;10407;53.238;10.448;2022-07-10T14:53:42;7.63;;;2.13;;
20497;SDS011;10407;53.238;10.448;2022-07-10T14:56:12;6.33;;;1.70;;
20497;SDS011;10407;53.238;10.448;2022-07-10T14:58:42;7.93;;;2.03;;
20497;SDS011;10407;53.238;10.448;2022-07-10T15:01:09;6.33;;;2.50;;
20497;SDS011;10407;53.238;10.448;2022-07-10T15:03:37;6.50;;;1.80;;
20497;SDS011;10407;53.238;10.448;2022-07-10T15:06:05;7.50;;;2.20;;
20497;SDS011;10407;53.238;10.448;2022-07-10T15:08:32;8.90;;;2.60;;
20497;SDS011;10407;53.238;10.448;2022-07-10T15:11:00;9.23;;;2.07;;
20497;SDS011;10407;53.238;10.448;2022-07-10T15:13:30;4.53;;;1.60;;
20497;SDS011;10407;53.238;10.448;2022-07-10T15:15:57;7.23;;;2.03;;
20497;SDS011;10407;53.238;10.448;2022-07-10T15:18:26;6.83;;;2.70;;